Time;durP1;ratioP1;P1;durP2;ratioP2;P2;SDS_P1;SDS_P2;PMS_P1;PMS_P2;Temp;Humidity;BMP_temperature;BMP_pressure;BME280_temperature;BME280_humidity;BME280_pressure;Samples;Min_cycle;Max_cycle;Signal;HPM_P1;HPM_P2
2021/09/24 00:00:57;;;;;;;;;0.00;0.00;;;;;;;;2761075;51;8794;-64
2021/09/24 00:03:23;;;;;;;;;0.25;0.25;;;;;;;;2761195;51;8893;-63
2021/09/24 00:05:49;;;;;;;;;0.00;0.00;;;;;;;;2760913;51;9033;-62
2021/09/24 00:08:14;;;;;;;;;0.67;0.67;;;;;;;;2760916;51;8790;-63
2021/09/24 00:10:40;;;;;;;;;1.00;1.00;;;;;;;;2760938;51;8774;-63
2021/09/24 00:13:06;;;;;;;;;1.00;0.33;;;;;;;;2760916;51;11561;-63
2021/09/24 00:15:31;;;;;;;;;0.00;0.00;;;;;;;;2760909;51;8798;-64
2021/09/24 00:17:57;;;;;;;;;1.00;0.33;;;;;;;;2761106;52;8775;-65
2021/09/24 00:20:22;;;;;;;;;0.00;0.00;;;;;;;;2761066;52;8786;-64
2021/09/24 00:22:48;;;;;;;;;0.00;0.00;;;;;;;;2761186;51;8797;-63
2021/09/24 00:25:14;;;;;;;;;0.00;0.00;;;;;;;;2760873;52;8782;-64
2021/09/24 00:27:39;;;;;;;;;0.00;0.00;;;;;;;;2760799;52;8782;-63
2021/09/24 00:30:06;;;;;;;;;1.00;1.00;;;;;;;;2760950;52;8803;-63
2021/09/24 00:32:32;;;;;;;;;0.00;0.00;;;;;;;;2760962;52;8814;-63
2021/09/24 00:34:58;;;;;;;;;0.00;0.00;;;;;;;;2760832;52;8802;-64
2021/09/24 00:37:23;;;;;;;;;0.00;0.00;;;;;;;;2760893;52;8795;-65
2021/09/24 00:39:49;;;;;;;;;1.00;1.00;;;;;;;;2761797;52;8874;-66
2021/09/24 00:42:14;;;;;;;;;1.00;1.00;;;;;;;;2762317;51;8798;-65
2021/09/24 00:44:41;;;;;;;;;0.00;0.00;;;;;;;;2761709;51;8804;-64
2021/09/24 00:47:07;;;;;;;;;1.00;1.00;;;;;;;;2762071;51;8873;-64
2021/09/24 00:49:32;;;;;;;;;2.00;1.00;;;;;;;;2761881;51;8794;-63
2021/09/24 00:51:58;;;;;;;;;0.33;0.33;;;;;;;;2761972;52;8778;-63
2021/09/24 00:54:24;;;;;;;;;0.67;0.00;;;;;;;;2761552;51;8920;-63
2021/09/24 00:56:52;;;;;;;;;0.00;0.00;;;;;;;;2762013;51;8766;-63
2021/09/24 00:59:18;;;;;;;;;1.50;1.00;;;;;;;;2762110;51;8783;-63
2021/09/24 01:01:43;;;;;;;;;0.50;0.00;;;;;;;;2761740;51;8775;-64
2021/09/24 01:04:09;;;;;;;;;1.33;1.00;;;;;;;;2761596;52;8803;-63
2021/09/24 01:06:36;;;;;;;;;1.00;1.00;;;;;;;;2762185;51;8922;-66
2021/09/24 01:09:01;;;;;;;;;0.75;0.00;;;;;;;;2761732;52;8766;-63
2021/09/24 01:11:27;;;;;;;;;1.33;1.33;;;;;;;;2761700;52;8830;-63
2021/09/24 01:13:52;;;;;;;;;0.00;0.00;;;;;;;;2761573;52;8794;-63
2021/09/24 01:16:19;;;;;;;;;0.00;0.00;;;;;;;;2761590;52;8770;-63
2021/09/24 01:18:44;;;;;;;;;1.00;1.00;;;;;;;;2761583;52;8778;-64
2021/09/24 01:21:10;;;;;;;;;1.00;1.00;;;;;;;;2761603;51;9456;-64
2021/09/24 01:23:36;;;;;;;;;0.00;0.00;;;;;;;;2761692;51;9405;-62
2021/09/24 01:26:02;;;;;;;;;1.00;0.00;;;;;;;;2761568;51;8794;-64
2021/09/24 01:28:27;;;;;;;;;1.00;0.00;;;;;;;;2761311;52;8823;-64
2021/09/24 01:30:53;;;;;;;;;2.00;1.00;;;;;;;;2761501;52;8782;-63
2021/09/24 01:33:18;;;;;;;;;0.00;0.00;;;;;;;;2761481;52;8799;-63
2021/09/24 01:35:44;;;;;;;;;0.00;0.00;;;;;;;;2761830;51;8794;-62
2021/09/24 01:38:10;;;;;;;;;0.67;0.67;;;;;;;;2761987;51;8754;-64
2021/09/24 01:40:35;;;;;;;;;0.00;0.00;;;;;;;;2761893;51;8797;-63
2021/09/24 01:43:01;;;;;;;;;0.33;0.00;;;;;;;;2761522;52;8872;-63
2021/09/24 01:45:26;;;;;;;;;1.00;1.00;;;;;;;;2761585;51;8797;-64
2021/09/24 01:47:52;;;;;;;;;0.00;0.00;;;;;;;;2761611;52;8771;-65
2021/09/24 01:50:17;;;;;;;;;0.00;0.00;;;;;;;;2761368;52;8864;-64
2021/09/24 01:52:43;;;;;;;;;0.00;0.00;;;;;;;;2761353;52;8802;-63
2021/09/24 01:55:09;;;;;;;;;1.00;1.00;;;;;;;;2761423;52;11457;-64
2021/09/24 01:57:36;;;;;;;;;0.00;0.00;;;;;;;;2761708;52;8775;-63
2021/09/24 02:00:03;;;;;;;;;0.50;0.50;;;;;;;;2761663;51;8802;-64
2021/09/24 02:02:30;;;;;;;;;0.00;0.00;;;;;;;;2760695;52;8818;-63
2021/09/24 02:04:55;;;;;;;;;1.00;1.00;;;;;;;;2761825;51;8789;-62
2021/09/24 02:07:21;;;;;;;;;1.00;1.00;;;;;;;;2761493;52;9425;-63
2021/09/24 02:09:46;;;;;;;;;0.67;0.00;;;;;;;;2761701;52;8888;-63
2021/09/24 02:12:12;;;;;;;;;0.00;0.00;;;;;;;;2761231;52;8770;-62
2021/09/24 02:14:37;;;;;;;;;0.33;0.00;;;;;;;;2761470;52;9353;-63
2021/09/24 02:17:04;;;;;;;;;1.00;1.00;;;;;;;;2761335;52;8793;-62
2021/09/24 02:19:30;;;;;;;;;0.00;0.00;;;;;;;;2761667;51;8869;-63
2021/09/24 02:21:57;;;;;;;;;0.00;0.00;;;;;;;;2761463;51;8766;-62
2021/09/24 02:24:23;;;;;;;;;3.50;2.00;;;;;;;;2761258;51;8802;-62
2021/09/24 02:26:49;;;;;;;;;0.67;0.00;;;;;;;;2761417;51;8786;-63
2021/09/24 02:29:14;;;;;;;;;0.00;0.00;;;;;;;;2761416;52;11498;-64
2021/09/24 02:31:40;;;;;;;;;0.67;0.33;;;;;;;;2761436;51;8774;-63
2021/09/24 02:34:06;;;;;;;;;1.00;1.00;;;;;;;;2761432;51;8798;-62
2021/09/24 02:36:32;;;;;;;;;0.00;0.00;;;;;;;;2761481;51;8770;-63
2021/09/24 02:38:57;;;;;;;;;2.67;1.33;;;;;;;;2761407;51;11451;-63
2021/09/24 02:41:23;;;;;;;;;3.67;2.00;;;;;;;;2761242;51;8783;-63
2021/09/24 02:43:49;;;;;;;;;5.33;2.00;;;;;;;;2761558;51;8795;-63
2021/09/24 02:46:14;;;;;;;;;0.33;0.00;;;;;;;;2761342;52;8802;-63
2021/09/24 02:48:40;;;;;;;;;1.33;1.00;;;;;;;;2761359;51;8884;-62
2021/09/24 02:51:05;;;;;;;;;2.00;1.33;;;;;;;;2761370;52;8782;-64
2021/09/24 02:53:31;;;;;;;;;2.33;1.00;;;;;;;;2761092;51;8917;-63
2021/09/24 02:55:57;;;;;;;;;0.00;0.00;;;;;;;;2761214;51;8872;-64
2021/09/24 02:58:22;;;;;;;;;3.00;0.00;;;;;;;;2761446;52;8791;-76
2021/09/24 03:00:48;;;;;;;;;2.00;1.33;;;;;;;;2761547;51;8778;-63
2021/09/24 03:03:14;;;;;;;;;4.00;1.50;;;;;;;;2761119;51;8810;-63
2021/09/24 03:05:39;;;;;;;;;0.33;0.00;;;;;;;;2761149;52;8876;-64
2021/09/24 03:08:05;;;;;;;;;1.00;1.00;;;;;;;;2761314;52;8895;-62
2021/09/24 03:10:31;;;;;;;;;0.00;0.00;;;;;;;;2760737;52;8907;-64
2021/09/24 03:12:56;;;;;;;;;1.00;1.00;;;;;;;;2761107;52;11562;-64
2021/09/24 03:15:22;;;;;;;;;1.00;1.00;;;;;;;;2761284;51;8801;-64
2021/09/24 03:17:48;;;;;;;;;2.00;1.00;;;;;;;;2761372;51;8803;-64
2021/09/24 03:20:13;;;;;;;;;0.67;0.67;;;;;;;;2761373;52;8789;-64
2021/09/24 03:22:39;;;;;;;;;1.00;1.00;;;;;;;;2761104;52;8810;-65
2021/09/24 03:25:05;;;;;;;;;0.00;0.00;;;;;;;;2761400;51;8821;-67
2021/09/24 03:27:31;;;;;;;;;4.25;1.50;;;;;;;;2760994;51;8782;-64
2021/09/24 03:29:56;;;;;;;;;1.00;1.00;;;;;;;;2760965;51;8965;-64
2021/09/24 03:32:22;;;;;;;;;3.33;2.00;;;;;;;;2761007;51;9555;-62
2021/09/24 03:34:48;;;;;;;;;2.67;2.00;;;;;;;;2761354;51;8801;-65
2021/09/24 03:37:14;;;;;;;;;1.25;1.25;;;;;;;;2760917;51;8775;-63
2021/09/24 03:39:39;;;;;;;;;1.00;1.00;;;;;;;;2761050;51;8774;-65
2021/09/24 03:42:06;;;;;;;;;2.00;0.67;;;;;;;;2760946;52;8778;-65
2021/09/24 03:44:31;;;;;;;;;0.25;0.25;;;;;;;;2761043;51;8770;-62
2021/09/24 03:46:57;;;;;;;;;2.33;1.00;;;;;;;;2761001;52;8883;-62
2021/09/24 03:49:23;;;;;;;;;1.00;1.00;;;;;;;;2761256;51;8793;-64
2021/09/24 03:51:50;;;;;;;;;2.00;1.00;;;;;;;;2761160;51;8980;-64
2021/09/24 03:54:16;;;;;;;;;1.00;1.00;;;;;;;;2760980;51;8802;-64
2021/09/24 03:56:43;;;;;;;;;0.50;0.50;;;;;;;;2761722;51;8802;-62
2021/09/24 03:59:09;;;;;;;;;1.00;1.00;;;;;;;;2761974;51;8802;-64
2021/09/24 04:01:35;;;;;;;;;1.00;1.00;;;;;;;;2765362;51;8782;-64
2021/09/24 04:04:00;;;;;;;;;0.33;0.33;;;;;;;;2760003;51;8804;-64
2021/09/24 04:06:26;;;;;;;;;2.00;2.00;;;;;;;;2766846;51;9453;-66
2021/09/24 04:08:52;;;;;;;;;2.67;1.67;;;;;;;;2767320;51;8787;-65
2021/09/24 04:11:17;;;;;;;;;1.00;1.00;;;;;;;;2766565;51;8898;-62
2021/09/24 04:13:43;;;;;;;;;1.33;1.33;;;;;;;;2762681;51;9486;-66
2021/09/24 04:18:43;;;;;;;;;1.75;1.50;;;;;;;;2749888;46;8863;-60
2021/09/24 04:21:09;;;;;;;;;3.00;2.00;;;;;;;;2749212;52;8778;-63
2021/09/24 04:23:35;;;;;;;;;1.00;1.00;;;;;;;;2749951;52;9375;-62
2021/09/24 04:26:01;;;;;;;;;1.67;1.67;;;;;;;;2749691;52;8764;-61
2021/09/24 04:28:26;;;;;;;;;1.00;1.00;;;;;;;;2750104;52;8874;-60
2021/09/24 04:30:52;;;;;;;;;2.67;2.00;;;;;;;;2749900;52;9506;-61
2021/09/24 04:33:17;;;;;;;;;2.33;1.67;;;;;;;;2749765;52;8804;-58
2021/09/24 04:35:43;;;;;;;;;1.67;1.67;;;;;;;;2750159;52;8792;-59
2021/09/24 04:38:09;;;;;;;;;2.33;2.33;;;;;;;;2749773;52;9449;-62
2021/09/24 04:40:34;;;;;;;;;2.33;2.33;;;;;;;;2749950;52;8798;-60
2021/09/24 04:43:00;;;;;;;;;4.33;2.33;;;;;;;;2749868;52;8944;-60
2021/09/24 04:45:26;;;;;;;;;3.00;2.67;;;;;;;;2749733;52;8783;-59
2021/09/24 04:47:51;;;;;;;;;1.50;1.50;;;;;;;;2750132;52;8772;-60
2021/09/24 04:50:17;;;;;;;;;5.33;3.33;;;;;;;;2749749;52;8787;-60
2021/09/24 04:52:43;;;;;;;;;3.67;3.00;;;;;;;;2749770;52;8915;-59
2021/09/24 04:55:08;;;;;;;;;6.33;3.00;;;;;;;;2749273;52;8807;-59
2021/09/24 04:57:35;;;;;;;;;3.67;2.67;;;;;;;;2743627;52;8818;-60
2021/09/24 05:00:00;;;;;;;;;2.00;2.00;;;;;;;;2743971;52;8778;-59
2021/09/24 05:02:26;;;;;;;;;6.00;3.33;;;;;;;;2744282;52;9479;-61
2021/09/24 05:04:51;;;;;;;;;8.00;3.67;;;;;;;;2744096;52;8778;-60
2021/09/24 05:07:17;;;;;;;;;4.33;3.33;;;;;;;;2743690;52;8816;-58
2021/09/24 05:09:43;;;;;;;;;6.00;5.00;;;;;;;;2743594;52;8797;-60
2021/09/24 05:12:08;;;;;;;;;6.67;6.00;;;;;;;;2743781;52;8793;-59
2021/09/24 05:14:34;;;;;;;;;4.33;4.00;;;;;;;;2743917;52;9433;-64
2021/09/24 05:17:00;;;;;;;;;12.67;11.00;;;;;;;;2743924;52;8806;-59
2021/09/24 05:19:25;;;;;;;;;7.67;6.67;;;;;;;;2743837;52;8791;-60
2021/09/24 05:21:51;;;;;;;;;10.67;7.33;;;;;;;;2743989;52;8770;-60
2021/09/24 05:24:16;;;;;;;;;6.00;3.33;;;;;;;;2743755;52;8774;-61
2021/09/24 05:26:42;;;;;;;;;4.00;4.00;;;;;;;;2748248;52;8788;-61
2021/09/24 05:29:07;;;;;;;;;3.00;3.00;;;;;;;;2749629;52;8775;-61
2021/09/24 05:31:33;;;;;;;;;5.00;3.00;;;;;;;;2750059;52;8772;-65
2021/09/24 05:34:00;;;;;;;;;4.33;4.33;;;;;;;;2749848;52;8795;-67
2021/09/24 05:36:26;;;;;;;;;5.75;3.25;;;;;;;;2749888;52;8809;-71
2021/09/24 05:38:52;;;;;;;;;5.00;3.00;;;;;;;;2750000;52;8776;-71
2021/09/24 05:41:17;;;;;;;;;5.75;4.50;;;;;;;;2749522;52;8787;-68
2021/09/24 05:43:44;;;;;;;;;3.75;3.00;;;;;;;;2749519;52;8783;-68
2021/09/24 05:46:10;;;;;;;;;3.40;2.20;;;;;;;;2749242;52;8824;-68
2021/09/24 05:48:35;;;;;;;;;2.00;2.00;;;;;;;;2749531;52;8767;-67
2021/09/24 05:51:01;;;;;;;;;2.50;1.75;;;;;;;;2749488;52;8881;-70
2021/09/24 05:53:27;;;;;;;;;2.00;2.00;;;;;;;;2749757;52;8804;-68
2021/09/24 05:55:52;;;;;;;;;2.00;2.00;;;;;;;;2750046;52;8802;-78
2021/09/24 05:58:18;;;;;;;;;1.75;1.75;;;;;;;;2750595;52;8792;-78
2021/09/24 06:00:44;;;;;;;;;1.50;1.50;;;;;;;;2749881;52;8784;-79
2021/09/24 06:03:09;;;;;;;;;1.25;1.25;;;;;;;;2749938;52;8779;-79
2021/09/24 06:05:35;;;;;;;;;2.00;0.25;;;;;;;;2750085;52;8792;-80
2021/09/24 06:08:00;;;;;;;;;2.00;2.00;;;;;;;;2749841;52;8824;-79
2021/09/24 06:10:26;;;;;;;;;1.00;1.00;;;;;;;;2749803;52;8792;-78
2021/09/24 06:12:52;;;;;;;;;1.00;1.00;;;;;;;;2750852;52;8837;-76
2021/09/24 06:15:18;;;;;;;;;1.00;0.00;;;;;;;;2749820;52;9462;-75
2021/09/24 06:17:44;;;;;;;;;1.00;1.00;;;;;;;;2749650;52;8795;-79
2021/09/24 06:20:10;;;;;;;;;1.00;1.00;;;;;;;;2749733;52;8814;-74
2021/09/24 06:22:36;;;;;;;;;1.20;1.20;;;;;;;;2749545;52;8798;-74
2021/09/24 06:25:02;;;;;;;;;1.00;1.00;;;;;;;;2743089;52;11795;-73
2021/09/24 06:27:28;;;;;;;;;1.00;1.00;;;;;;;;2737453;52;17560;-76
2021/09/24 06:29:54;;;;;;;;;2.75;2.00;;;;;;;;2737880;52;9474;-76
2021/09/24 06:32:20;;;;;;;;;1.60;1.00;;;;;;;;2737827;52;8795;-74
2021/09/24 06:34:47;;;;;;;;;1.00;1.00;;;;;;;;2737650;52;8793;-73
2021/09/24 06:37:13;;;;;;;;;1.20;1.20;;;;;;;;2737460;52;8793;-74
2021/09/24 06:39:38;;;;;;;;;0.00;0.00;;;;;;;;2738119;52;8797;-73
2021/09/24 06:42:04;;;;;;;;;1.00;1.00;;;;;;;;2738053;52;8891;-75
2021/09/24 06:44:30;;;;;;;;;0.80;0.80;;;;;;;;2737630;52;8781;-76
2021/09/24 06:46:57;;;;;;;;;3.00;1.75;;;;;;;;2737656;52;8885;-75
2021/09/24 06:49:24;;;;;;;;;0.20;0.20;;;;;;;;2738076;52;8800;-77
2021/09/24 06:51:51;;;;;;;;;1.00;1.00;;;;;;;;2737958;52;8789;-78
2021/09/24 06:54:16;;;;;;;;;2.00;2.00;;;;;;;;2737657;52;8804;-79
2021/09/24 06:56:42;;;;;;;;;2.00;2.00;;;;;;;;2738134;52;8895;-78
2021/09/24 06:59:08;;;;;;;;;1.00;1.00;;;;;;;;2737651;52;8796;-80
2021/09/24 07:01:33;;;;;;;;;0.00;0.00;;;;;;;;2737777;52;8797;-77
2021/09/24 07:03:59;;;;;;;;;0.75;0.75;;;;;;;;2737715;52;8797;-79
2021/09/24 07:06:24;;;;;;;;;1.00;0.00;;;;;;;;2737971;52;8931;-76
2021/09/24 07:08:51;;;;;;;;;1.00;0.75;;;;;;;;2737747;52;8801;-80
2021/09/24 07:11:17;;;;;;;;;0.40;0.40;;;;;;;;2737867;52;8797;-77
2021/09/24 07:13:43;;;;;;;;;0.80;0.80;;;;;;;;2737745;52;8808;-78
2021/09/24 07:16:08;;;;;;;;;2.00;1.00;;;;;;;;2737691;52;8820;-78
2021/09/24 07:18:34;;;;;;;;;1.00;1.00;;;;;;;;2737706;52;8854;-83
2021/09/24 07:20:59;;;;;;;;;0.75;0.75;;;;;;;;2737799;52;8834;-71
2021/09/24 07:23:25;;;;;;;;;1.00;1.00;;;;;;;;2737806;52;8813;-75
2021/09/24 07:25:52;;;;;;;;;1.50;0.25;;;;;;;;2740336;52;8815;-75
2021/09/24 07:28:17;;;;;;;;;1.00;1.00;;;;;;;;2743659;52;8803;-82
2021/09/24 07:30:49;;;;;;;;;1.00;1.00;;;;;;;;2744279;52;8892;-85
2021/09/24 07:33:15;;;;;;;;;1.00;1.00;;;;;;;;2744011;52;8786;-87
2021/09/24 07:35:41;;;;;;;;;0.80;0.80;;;;;;;;2744352;52;8808;-90
2021/09/24 07:38:06;;;;;;;;;0.20;0.20;;;;;;;;2744122;52;8795;-88
2021/09/24 07:40:32;;;;;;;;;0.75;0.75;;;;;;;;2744686;52;8803;-73
2021/09/24 07:42:58;;;;;;;;;0.25;0.25;;;;;;;;2743579;52;8828;-84
2021/09/24 07:45:24;;;;;;;;;0.00;0.00;;;;;;;;2743635;52;8823;-73
2021/09/24 07:47:50;;;;;;;;;0.00;0.00;;;;;;;;2743416;52;8806;-74
2021/09/24 07:50:15;;;;;;;;;0.00;0.00;;;;;;;;2743410;52;8786;-73
2021/09/24 07:52:41;;;;;;;;;1.00;1.00;;;;;;;;2743368;52;8889;-72
2021/09/24 07:55:08;;;;;;;;;0.75;0.75;;;;;;;;2743759;52;8798;-74
2021/09/24 07:57:34;;;;;;;;;1.00;1.00;;;;;;;;2743297;52;11464;-76
2021/09/24 07:59:59;;;;;;;;;0.00;0.00;;;;;;;;2743464;52;8794;-78
2021/09/24 08:02:25;;;;;;;;;0.50;0.25;;;;;;;;2743322;52;11522;-77
2021/09/24 08:04:50;;;;;;;;;0.00;0.00;;;;;;;;2743192;52;8817;-73
2021/09/24 08:07:16;;;;;;;;;0.00;0.00;;;;;;;;2743523;52;8798;-74
2021/09/24 08:09:42;;;;;;;;;1.00;0.00;;;;;;;;2743371;52;8782;-73
2021/09/24 08:12:08;;;;;;;;;2.00;2.00;;;;;;;;2743198;52;8877;-75
2021/09/24 08:14:33;;;;;;;;;1.00;1.00;;;;;;;;2743355;52;8810;-71
2021/09/24 08:16:59;;;;;;;;;1.50;1.50;;;;;;;;2743233;52;11270;-72
2021/09/24 08:19:25;;;;;;;;;1.00;1.00;;;;;;;;2742897;52;8786;-74
2021/09/24 08:21:50;;;;;;;;;2.00;2.00;;;;;;;;2736904;52;8821;-71
2021/09/24 08:24:16;;;;;;;;;0.00;0.00;;;;;;;;2736262;52;8819;-71
2021/09/24 08:26:42;;;;;;;;;0.50;0.50;;;;;;;;2737149;52;8783;-66
2021/09/24 08:29:07;;;;;;;;;0.25;0.25;;;;;;;;2737386;52;8809;-66
2021/09/24 08:31:33;;;;;;;;;0.00;0.00;;;;;;;;2738950;52;9523;-64
2021/09/24 08:33:59;;;;;;;;;0.00;0.00;;;;;;;;2739084;52;8783;-64
2021/09/24 08:36:25;;;;;;;;;0.00;0.00;;;;;;;;2739312;52;9447;-63
2021/09/24 08:38:51;;;;;;;;;0.75;0.75;;;;;;;;2739124;52;8846;-63
2021/09/24 08:41:17;;;;;;;;;0.00;0.00;;;;;;;;2738930;52;8808;-64
2021/09/24 08:43:46;;;;;;;;;0.67;0.67;;;;;;;;2739177;52;8807;-62
2021/09/24 08:46:14;;;;;;;;;0.00;0.00;;;;;;;;2738954;52;8802;-63
2021/09/24 08:48:39;;;;;;;;;0.00;0.00;;;;;;;;2738825;52;8833;-62
2021/09/24 08:51:05;;;;;;;;;0.00;0.00;;;;;;;;2739129;52;8808;-63
2021/09/24 08:53:32;;;;;;;;;0.00;0.00;;;;;;;;2737781;52;8957;-63
2021/09/24 08:55:57;;;;;;;;;0.00;0.00;;;;;;;;2739068;52;9452;-63
2021/09/24 08:58:23;;;;;;;;;0.00;0.00;;;;;;;;2739085;52;8860;-62
2021/09/24 09:00:48;;;;;;;;;0.00;0.00;;;;;;;;2739291;52;8806;-63
2021/09/24 09:03:15;;;;;;;;;0.00;0.00;;;;;;;;2740043;52;8925;-62
2021/09/24 09:05:46;;;;;;;;;0.00;0.00;;;;;;;;2739731;52;8789;-63
2021/09/24 09:08:11;;;;;;;;;0.00;0.00;;;;;;;;2739745;52;9488;-63
2021/09/24 09:10:49;;;;;;;;;0.00;0.00;;;;;;;;2739672;52;8808;-63
2021/09/24 09:13:17;;;;;;;;;0.00;0.00;;;;;;;;2739427;52;8810;-60
2021/09/24 09:15:57;;;;;;;;;0.00;0.00;;;;;;;;2739807;52;8789;-62
2021/09/24 09:18:23;;;;;;;;;0.00;0.00;;;;;;;;2740246;52;8809;-63
2021/09/24 09:20:50;;;;;;;;;0.00;0.00;;;;;;;;2738914;52;8793;-65
2021/09/24 09:23:16;;;;;;;;;0.00;0.00;;;;;;;;2738019;52;8789;-62
2021/09/24 09:25:44;;;;;;;;;0.00;0.00;;;;;;;;2738226;52;8895;-61
2021/09/24 09:28:11;;;;;;;;;1.00;0.00;;;;;;;;2737841;52;8797;-62
2021/09/24 09:30:39;;;;;;;;;0.00;0.00;;;;;;;;2737836;52;9404;-63
2021/09/24 09:33:11;;;;;;;;;0.00;0.00;;;;;;;;2738156;52;8901;-61
2021/09/24 09:35:56;;;;;;;;;0.25;0.00;;;;;;;;2738182;52;8802;-64
2021/09/24 09:38:25;;;;;;;;;0.00;0.00;;;;;;;;2740396;52;8783;-63
2021/09/24 09:40:52;;;;;;;;;0.00;0.00;;;;;;;;2743634;52;8900;-63
2021/09/24 09:43:19;;;;;;;;;0.00;0.00;;;;;;;;2743687;52;8791;-60
2021/09/24 09:45:45;;;;;;;;;0.00;0.00;;;;;;;;2743609;52;8893;-61
2021/09/24 09:48:14;;;;;;;;;0.00;0.00;;;;;;;;2743531;52;9014;-61
2021/09/24 09:50:40;;;;;;;;;0.00;0.00;;;;;;;;2743780;52;8782;-61
2021/09/24 09:53:12;;;;;;;;;0.50;0.50;;;;;;;;2743814;52;8778;-61
2021/09/24 09:55:39;;;;;;;;;1.00;1.00;;;;;;;;2743828;52;9427;-62
2021/09/24 09:58:08;;;;;;;;;1.50;0.00;;;;;;;;2743755;52;8782;-61
2021/09/24 10:00:35;;;;;;;;;0.00;0.00;;;;;;;;2743670;52;8783;-63
2021/09/24 10:03:09;;;;;;;;;0.00;0.00;;;;;;;;2739853;52;9508;-62
2021/09/24 10:05:36;;;;;;;;;0.00;0.00;;;;;;;;2739939;52;8877;-60
2021/09/24 10:08:17;;;;;;;;;0.00;0.00;;;;;;;;2739019;52;8801;-63
2021/09/24 10:11:13;;;;;;;;;0.00;0.00;;;;;;;;2738027;52;8789;-61
2021/09/24 10:13:56;;;;;;;;;0.00;0.00;;;;;;;;2735448;52;8925;-63
2021/09/24 10:16:25;;;;;;;;;0.00;0.00;;;;;;;;2737738;52;8821;-62
2021/09/24 10:18:51;;;;;;;;;0.00;0.00;;;;;;;;2737745;52;8797;-61
2021/09/24 10:21:17;;;;;;;;;0.00;0.00;;;;;;;;2737772;52;8811;-60
2021/09/24 10:23:43;;;;;;;;;0.00;0.00;;;;;;;;2737740;52;8793;-62
2021/09/24 10:26:10;;;;;;;;;0.00;0.00;;;;;;;;2737570;52;8931;-60
2021/09/24 10:28:38;;;;;;;;;0.00;0.00;;;;;;;;2738017;52;8801;-61
2021/09/24 10:31:04;;;;;;;;;0.00;0.00;;;;;;;;2737590;52;8804;-62
2021/09/24 10:33:48;;;;;;;;;0.00;0.00;;;;;;;;2737513;52;9474;-63
2021/09/24 10:36:33;;;;;;;;;0.00;0.00;;;;;;;;2737712;52;8800;-61
2021/09/24 10:38:59;;;;;;;;;0.00;0.00;;;;;;;;2741427;52;8802;-61
2021/09/24 10:41:25;;;;;;;;;0.00;0.00;;;;;;;;2743811;52;8805;-61
2021/09/24 10:43:51;;;;;;;;;0.00;0.00;;;;;;;;2743396;52;8802;-64
2021/09/24 10:46:34;;;;;;;;;0.00;0.00;;;;;;;;2743699;52;9413;-61
2021/09/24 10:49:30;;;;;;;;;0.00;0.00;;;;;;;;2743838;52;8782;-60
2021/09/24 10:51:59;;;;;;;;;0.00;0.00;;;;;;;;2743903;52;8783;-61
2021/09/24 10:54:28;;;;;;;;;0.00;0.00;;;;;;;;2743351;52;8893;-62
2021/09/24 10:57:00;;;;;;;;;0.00;0.00;;;;;;;;2743460;52;8794;-64
2021/09/24 10:59:29;;;;;;;;;0.00;0.00;;;;;;;;2743525;52;8790;-62
2021/09/24 11:01:56;;;;;;;;;0.00;0.00;;;;;;;;2743630;52;8779;-62
2021/09/24 11:04:39;;;;;;;;;0.00;0.00;;;;;;;;2743544;52;8802;-64
2021/09/24 11:07:05;;;;;;;;;0.00;0.00;;;;;;;;2743358;52;8790;-61
2021/09/24 11:09:31;;;;;;;;;0.00;0.00;;;;;;;;2743473;52;8802;-62
2021/09/24 11:12:04;;;;;;;;;0.00;0.00;;;;;;;;2743516;52;8801;-64
2021/09/24 11:14:30;;;;;;;;;0.00;0.00;;;;;;;;2743448;52;8906;-61
2021/09/24 11:16:56;;;;;;;;;0.00;0.00;;;;;;;;2743644;52;8774;-63
2021/09/24 11:19:36;;;;;;;;;0.00;0.00;;;;;;;;2743518;52;8790;-62
2021/09/24 11:22:02;;;;;;;;;0.00;0.00;;;;;;;;2743381;52;8782;-64
2021/09/24 11:24:38;;;;;;;;;0.00;0.00;;;;;;;;2743350;52;8790;-63
2021/09/24 11:27:05;;;;;;;;;0.00;0.00;;;;;;;;2743421;52;8907;-61
2021/09/24 11:29:31;;;;;;;;;0.25;0.25;;;;;;;;2743471;52;8787;-60
2021/09/24 11:31:58;;;;;;;;;0.00;0.00;;;;;;;;2742652;52;8793;-60
2021/09/24 11:34:50;;;;;;;;;0.00;0.00;;;;;;;;2743392;52;10101;-61
2021/09/24 11:37:30;;;;;;;;;0.00;0.00;;;;;;;;2741713;52;8775;-61
2021/09/24 11:39:58;;;;;;;;;0.00;0.00;;;;;;;;2737599;52;8903;-62
2021/09/24 11:42:23;;;;;;;;;0.00;0.00;;;;;;;;2737758;52;8796;-63
2021/09/24 11:44:50;;;;;;;;;0.00;0.00;;;;;;;;2737461;52;8805;-60
2021/09/24 11:47:17;;;;;;;;;0.00;0.00;;;;;;;;2737361;52;11682;-60
2021/09/24 11:49:56;;;;;;;;;0.00;0.00;;;;;;;;2737733;52;8789;-62
2021/09/24 11:52:24;;;;;;;;;1.50;1.50;;;;;;;;2737160;52;8815;-61
2021/09/24 11:54:49;;;;;;;;;0.75;0.00;;;;;;;;2737458;52;8812;-61
2021/09/24 11:57:16;;;;;;;;;0.00;0.00;;;;;;;;2737416;52;8796;-59
2021/09/24 11:59:42;;;;;;;;;0.00;0.00;;;;;;;;2737581;52;8991;-63
2021/09/24 12:02:17;;;;;;;;;0.00;0.00;;;;;;;;2737361;52;8793;-59
2021/09/24 12:04:56;;;;;;;;;0.00;0.00;;;;;;;;2737276;52;8892;-62
2021/09/24 12:07:22;;;;;;;;;0.00;0.00;;;;;;;;2737314;52;8820;-61
2021/09/24 12:09:47;;;;;;;;;0.00;0.00;;;;;;;;2737185;52;8789;-60
2021/09/24 12:12:19;;;;;;;;;0.00;0.00;;;;;;;;2737286;52;8800;-61
2021/09/24 12:14:52;;;;;;;;;0.00;0.00;;;;;;;;2737538;52;8781;-61
2021/09/24 12:17:21;;;;;;;;;0.60;0.00;;;;;;;;2737218;52;8824;-61
2021/09/24 12:19:46;;;;;;;;;0.00;0.00;;;;;;;;2736676;52;8795;-62
2021/09/24 12:22:14;;;;;;;;;0.00;0.00;;;;;;;;2737235;52;8789;-62
2021/09/24 12:24:45;;;;;;;;;0.20;0.20;;;;;;;;2737099;52;8781;-62
2021/09/24 12:27:24;;;;;;;;;0.00;0.00;;;;;;;;2737519;52;8808;-60
2021/09/24 12:29:51;;;;;;;;;1.00;1.00;;;;;;;;2737351;52;8785;-63
2021/09/24 12:32:21;;;;;;;;;0.00;0.00;;;;;;;;2736973;52;8895;-61
2021/09/24 12:34:52;;;;;;;;;1.00;1.00;;;;;;;;2736978;52;8899;-61
2021/09/24 12:37:20;;;;;;;;;2.00;1.80;;;;;;;;2737870;52;8801;-61
2021/09/24 12:39:58;;;;;;;;;1.80;1.80;;;;;;;;2743897;52;8883;-62
2021/09/24 12:42:31;;;;;;;;;1.00;0.00;;;;;;;;2743725;52;8804;-61
2021/09/24 12:45:00;;;;;;;;;3.60;2.80;;;;;;;;2744139;52;8813;-63
2021/09/24 12:47:27;;;;;;;;;1.80;0.80;;;;;;;;2743889;52;8803;-64
2021/09/24 12:49:54;;;;;;;;;1.20;1.20;;;;;;;;2743945;52;8890;-63
2021/09/24 12:52:21;;;;;;;;;1.20;1.20;;;;;;;;2744332;52;8778;-64
2021/09/24 12:54:48;;;;;;;;;1.00;1.00;;;;;;;;2743444;52;8898;-64
2021/09/24 12:57:17;;;;;;;;;1.00;1.00;;;;;;;;2744258;52;8879;-64
2021/09/24 12:59:51;;;;;;;;;2.40;1.00;;;;;;;;2743781;52;8790;-61
2021/09/24 13:02:17;;;;;;;;;0.60;0.00;;;;;;;;2744355;52;8782;-61
2021/09/24 13:04:44;;;;;;;;;1.00;1.00;;;;;;;;2743740;52;8794;-62
2021/09/24 13:07:10;;;;;;;;;0.60;0.40;;;;;;;;2744133;52;8786;-63
2021/09/24 13:09:37;;;;;;;;;0.75;0.75;;;;;;;;2744258;52;8801;-62
2021/09/24 13:12:03;;;;;;;;;1.20;1.20;;;;;;;;2743839;52;8786;-64
2021/09/24 13:14:29;;;;;;;;;2.00;2.00;;;;;;;;2744096;52;8910;-61
2021/09/24 13:16:54;;;;;;;;;2.50;1.50;;;;;;;;2743647;52;8871;-62
2021/09/24 13:19:20;;;;;;;;;0.50;0.50;;;;;;;;2743848;52;8798;-62
2021/09/24 13:21:46;;;;;;;;;1.00;1.00;;;;;;;;2743734;52;11489;-62
2021/09/24 13:24:11;;;;;;;;;0.00;0.00;;;;;;;;2743640;52;8833;-61
2021/09/24 13:26:37;;;;;;;;;1.00;0.67;;;;;;;;2744108;52;8805;-61
2021/09/24 13:29:03;;;;;;;;;0.00;0.00;;;;;;;;2743750;52;8782;-62
2021/09/24 13:31:29;;;;;;;;;0.00;0.00;;;;;;;;2744006;52;8770;-63
2021/09/24 13:33:55;;;;;;;;;0.00;0.00;;;;;;;;2743722;52;9409;-61
2021/09/24 13:36:20;;;;;;;;;0.00;0.00;;;;;;;;2743828;52;9441;-61
2021/09/24 13:38:46;;;;;;;;;0.00;0.00;;;;;;;;2743754;52;8774;-62
2021/09/24 13:41:12;;;;;;;;;0.00;0.00;;;;;;;;2743637;52;8837;-61
2021/09/24 13:43:37;;;;;;;;;0.00;0.00;;;;;;;;2743776;52;8908;-61
2021/09/24 13:46:03;;;;;;;;;0.00;0.00;;;;;;;;2743442;52;8803;-61
2021/09/24 13:48:29;;;;;;;;;0.33;0.33;;;;;;;;2743586;52;8778;-61
2021/09/24 13:50:54;;;;;;;;;0.00;0.00;;;;;;;;2743561;52;8783;-62
2021/09/24 13:53:20;;;;;;;;;1.00;1.00;;;;;;;;2743519;52;8907;-61
2021/09/24 13:55:46;;;;;;;;;1.00;1.00;;;;;;;;2743702;52;8775;-64
2021/09/24 13:58:12;;;;;;;;;1.50;0.75;;;;;;;;2743713;52;8787;-62
2021/09/24 14:00:37;;;;;;;;;0.00;0.00;;;;;;;;2743312;52;8787;-60
2021/09/24 14:03:03;;;;;;;;;1.00;1.00;;;;;;;;2743628;52;8809;-63
2021/09/24 14:05:29;;;;;;;;;0.50;0.50;;;;;;;;2743576;52;8774;-63
2021/09/24 14:07:54;;;;;;;;;1.00;1.00;;;;;;;;2743489;52;8791;-64
2021/09/24 14:10:20;;;;;;;;;1.50;1.50;;;;;;;;2737798;52;8791;-61
2021/09/24 14:12:49;;;;;;;;;1.50;1.50;;;;;;;;2737656;52;8782;-62
2021/09/24 14:15:15;;;;;;;;;1.00;1.00;;;;;;;;2738048;52;8778;-64
2021/09/24 14:17:41;;;;;;;;;1.80;1.80;;;;;;;;2737559;52;8799;-64
2021/09/24 14:20:08;;;;;;;;;1.00;1.00;;;;;;;;2738142;52;8887;-63
2021/09/24 14:22:34;;;;;;;;;2.80;0.40;;;;;;;;2737205;52;8775;-64
2021/09/24 14:24:59;;;;;;;;;1.00;1.00;;;;;;;;2736987;52;8802;-64
2021/09/24 14:27:26;;;;;;;;;0.20;0.00;;;;;;;;2739043;52;8834;-63
2021/09/24 14:29:51;;;;;;;;;0.60;0.60;;;;;;;;2740764;52;8781;-64
2021/09/24 14:32:17;;;;;;;;;0.25;0.25;;;;;;;;2739666;52;8788;-63
2021/09/24 14:34:43;;;;;;;;;0.50;0.50;;;;;;;;2739769;52;8813;-63
2021/09/24 14:37:08;;;;;;;;;1.00;1.00;;;;;;;;2739646;52;8793;-62
2021/09/24 14:39:34;;;;;;;;;0.00;0.00;;;;;;;;2739655;52;9361;-64
2021/09/24 14:42:00;;;;;;;;;1.00;1.00;;;;;;;;2739572;52;8810;-61
2021/09/24 14:44:26;;;;;;;;;1.50;0.50;;;;;;;;2739547;52;8828;-61
2021/09/24 14:46:51;;;;;;;;;1.50;1.00;;;;;;;;2739265;52;8924;-63
2021/09/24 14:49:18;;;;;;;;;0.00;0.00;;;;;;;;2739300;52;8904;-63
2021/09/24 14:51:43;;;;;;;;;1.00;1.00;;;;;;;;2739432;52;8801;-63
2021/09/24 14:54:09;;;;;;;;;0.00;0.00;;;;;;;;2739510;52;8809;-62
2021/09/24 14:56:35;;;;;;;;;1.00;0.80;;;;;;;;2739838;52;8817;-65